sensor_id;sensor_type;location;lat;lon;timestamp;temperature;humidity
9043;DHT22;4556;49.150;8.808;2022-09-21T00:00:24;5.50;99.90
9043;DHT22;4556;49.150;8.808;2022-09-21T00:02:53;5.50;99.90
9043;DHT22;4556;49.150;8.808;2022-09-21T00:05:21;5.30;99.90
9043;DHT22;4556;49.150;8.808;2022-09-21T00:07:48;5.40;99.90
9043;DHT22;4556;49.150;8.808;2022-09-21T00:10:15;5.30;99.90
9043;DHT22;4556;49.150;8.808;2022-09-21T00:12:44;5.20;99.90
9043;DHT22;4556;49.150;8.808;2022-09-21T00:15:13;6.70;99.90
9043;DHT22;4556;49.150;8.808;2022-09-21T00:17:44;5.50;99.90
9043;DHT22;4556;49.150;8.808;2022-09-21T00:20:12;5.40;99.90
9043;DHT22;4556;49.150;8.808;2022-09-21T00:22:39;6.70;99.90
9043;DHT22;4556;49.150;8.808;2022-09-21T00:25:07;5.50;99.90
9043;DHT22;4556;49.150;8.808;2022-09-21T00:27:34;5.40;99.90
9043;DHT22;4556;49.150;8.808;2022-09-21T00:30:05;6.70;99.90
9043;DHT22;4556;49.150;8.808;2022-09-21T00:32:33;5.20;99.90
9043;DHT22;4556;49.150;8.808;2022-09-21T00:35:04;5.10;99.90
9043;DHT22;4556;49.150;8.808;2022-09-21T00:37:32;5.20;99.90
9043;DHT22;4556;49.150;8.808;2022-09-21T00:39:59;5.10;99.90
9043;DHT22;4556;49.150;8.808;2022-09-21T00:42:28;5.10;99.90
9043;DHT22;4556;49.150;8.808;2022-09-21T00:44:56;5.10;99.90
9043;DHT22;4556;49.150;8.808;2022-09-21T00:47:27;7.40;99.90
9043;DHT22;4556;49.150;8.808;2022-09-21T00:49:58;5.10;99.90
9043;DHT22;4556;49.150;8.808;2022-09-21T00:52:29;5.20;99.90
9043;DHT22;4556;49.150;8.808;2022-09-21T00:55:03;5.20;99.90
9043;DHT22;4556;49.150;8.808;2022-09-21T00:57:31;5.50;99.90
9043;DHT22;4556;49.150;8.808;2022-09-21T01:00:03;5.50;99.90
9043;DHT22;4556;49.150;8.808;2022-09-21T01:02:31;5.20;99.90
9043;DHT22;4556;49.150;8.808;2022-09-21T01:04:59;6.80;99.90
9043;DHT22;4556;49.150;8.808;2022-09-21T01:07:34;4.90;99.90
9043;DHT22;4556;49.150;8.808;2022-09-21T01:10:05;5.50;99.90
9043;DHT22;4556;49.150;8.808;2022-09-21T01:12:47;4.90;99.90
9043;DHT22;4556;49.150;8.808;2022-09-21T01:15:28;5.60;99.90
9043;DHT22;4556;49.150;8.808;2022-09-21T01:18:05;5.00;99.90
9043;DHT22;4556;49.150;8.808;2022-09-21T01:26:35;7.70;99.90
9043;DHT22;4556;49.150;8.808;2022-09-21T01:29:19;4.80;99.90
9043;DHT22;4556;49.150;8.808;2022-09-21T01:31:51;4.80;99.90
9043;DHT22;4556;49.150;8.808;2022-09-21T01:34:25;4.80;99.90
9043;DHT22;4556;49.150;8.808;2022-09-21T01:36:55;6.20;99.90
9043;DHT22;4556;49.150;8.808;2022-09-21T01:39:25;4.90;99.90
9043;DHT22;4556;49.150;8.808;2022-09-21T01:41:53;5.00;99.90
9043;DHT22;4556;49.150;8.808;2022-09-21T01:44:27;5.00;99.90
9043;DHT22;4556;49.150;8.808;2022-09-21T01:46:56;4.90;99.90
9043;DHT22;4556;49.150;8.808;2022-09-21T01:49:30;4.80;99.90
9043;DHT22;4556;49.150;8.808;2022-09-21T01:52:01;4.80;99.90
9043;DHT22;4556;49.150;8.808;2022-09-21T01:54:37;4.60;99.90
9043;DHT22;4556;49.150;8.808;2022-09-21T01:57:07;5.60;99.90
9043;DHT22;4556;49.150;8.808;2022-09-21T01:59:47;4.70;99.90
9043;DHT22;4556;49.150;8.808;2022-09-21T02:02:18;4.70;99.90
9043;DHT22;4556;49.150;8.808;2022-09-21T02:04:46;4.90;99.90
9043;DHT22;4556;49.150;8.808;2022-09-21T02:07:15;5.90;99.90
9043;DHT22;4556;49.150;8.808;2022-09-21T02:09:43;5.00;99.90
9043;DHT22;4556;49.150;8.808;2022-09-21T02:12:12;4.90;99.90
9043;DHT22;4556;49.150;8.808;2022-09-21T02:14:41;5.20;99.90
9043;DHT22;4556;49.150;8.808;2022-09-21T02:17:22;6.70;99.90
9043;DHT22;4556;49.150;8.808;2022-09-21T02:19:58;6.20;99.90
9043;DHT22;4556;49.150;8.808;2022-09-21T02:22:32;7.50;99.90
9043;DHT22;4556;49.150;8.808;2022-09-21T02:25:06;5.50;99.90
9043;DHT22;4556;49.150;8.808;2022-09-21T02:27:40;4.60;99.90
9043;DHT22;4556;49.150;8.808;2022-09-21T02:30:14;5.50;99.90
9043;DHT22;4556;49.150;8.808;2022-09-21T02:32:46;7.20;99.90
9043;DHT22;4556;49.150;8.808;2022-09-21T02:35:23;4.40;99.90
9043;DHT22;4556;49.150;8.808;2022-09-21T02:38:00;5.20;99.90
9043;DHT22;4556;49.150;8.808;2022-09-21T02:40:34;4.40;99.90
9043;DHT22;4556;49.150;8.808;2022-09-21T02:43:05;5.60;99.90
9043;DHT22;4556;49.150;8.808;2022-09-21T02:45:38;4.30;99.90
9043;DHT22;4556;49.150;8.808;2022-09-21T02:48:10;7.40;99.90
9043;DHT22;4556;49.150;8.808;2022-09-21T02:50:42;5.70;99.90
9043;DHT22;4556;49.150;8.808;2022-09-21T02:53:11;4.40;99.90
9043;DHT22;4556;49.150;8.808;2022-09-21T02:55:39;4.40;99.90
9043;DHT22;4556;49.150;8.808;2022-09-21T02:58:09;5.80;99.90
9043;DHT22;4556;49.150;8.808;2022-09-21T03:00:39;7.30;99.90
9043;DHT22;4556;49.150;8.808;2022-09-21T03:03:14;4.30;99.90
9043;DHT22;4556;49.150;8.808;2022-09-21T03:05:43;4.30;99.90
9043;DHT22;4556;49.150;8.808;2022-09-21T03:08:10;4.20;99.90
9043;DHT22;4556;49.150;8.808;2022-09-21T03:10:37;7.30;99.90
9043;DHT22;4556;49.150;8.808;2022-09-21T03:13:05;4.40;99.90
9043;DHT22;4556;49.150;8.808;2022-09-21T03:15:34;4.60;99.90
9043;DHT22;4556;49.150;8.808;2022-09-21T03:18:04;4.60;99.90
9043;DHT22;4556;49.150;8.808;2022-09-21T03:20:34;6.30;99.90
9043;DHT22;4556;49.150;8.808;2022-09-21T03:23:02;5.20;99.90
9043;DHT22;4556;49.150;8.808;2022-09-21T03:25:30;5.30;99.90
9043;DHT22;4556;49.150;8.808;2022-09-21T03:27:57;5.50;99.90
9043;DHT22;4556;49.150;8.808;2022-09-21T03:30:25;5.50;99.90
9043;DHT22;4556;49.150;8.808;2022-09-21T03:32:54;6.20;99.90
9043;DHT22;4556;49.150;8.808;2022-09-21T03:35:23;5.50;99.90
9043;DHT22;4556;49.150;8.808;2022-09-21T03:37:51;5.80;99.90
9043;DHT22;4556;49.150;8.808;2022-09-21T03:40:19;5.60;99.90
9043;DHT22;4556;49.150;8.808;2022-09-21T03:42:46;5.50;99.90
9043;DHT22;4556;49.150;8.808;2022-09-21T03:45:14;5.40;99.90
9043;DHT22;4556;49.150;8.808;2022-09-21T03:47:41;5.40;99.90
9043;DHT22;4556;49.150;8.808;2022-09-21T03:50:08;5.30;99.90
9043;DHT22;4556;49.150;8.808;2022-09-21T03:52:38;6.40;99.90
9043;DHT22;4556;49.150;8.808;2022-09-21T03:55:07;5.30;99.90
9043;DHT22;4556;49.150;8.808;2022-09-21T03:57:35;5.40;99.90
9043;DHT22;4556;49.150;8.808;2022-09-21T04:00:04;5.40;99.90
9043;DHT22;4556;49.150;8.808;2022-09-21T04:02:32;5.40;99.90
9043;DHT22;4556;49.150;8.808;2022-09-21T04:04:59;5.40;99.90
9043;DHT22;4556;49.150;8.808;2022-09-21T04:07:29;5.40;99.90
9043;DHT22;4556;49.150;8.808;2022-09-21T04:10:00;5.40;99.90
9043;DHT22;4556;49.150;8.808;2022-09-21T04:12:27;5.40;99.90
9043;DHT22;4556;49.150;8.808;2022-09-21T04:14:55;5.40;99.90
9043;DHT22;4556;49.150;8.808;2022-09-21T04:17:22;5.40;99.90
9043;DHT22;4556;49.150;8.808;2022-09-21T04:19:49;8.60;99.90
9043;DHT22;4556;49.150;8.808;2022-09-21T04:22:16;6.10;99.90
9043;DHT22;4556;49.150;8.808;2022-09-21T04:24:44;7.20;99.90
9043;DHT22;4556;49.150;8.808;2022-09-21T04:27:12;6.20;99.90
9043;DHT22;4556;49.150;8.808;2022-09-21T04:29:39;5.40;99.90
9043;DHT22;4556;49.150;8.808;2022-09-21T04:32:06;5.70;99.90
9043;DHT22;4556;49.150;8.808;2022-09-21T04:34:33;5.50;99.90
9043;DHT22;4556;49.150;8.808;2022-09-21T04:37:00;5.40;99.90
9043;DHT22;4556;49.150;8.808;2022-09-21T04:39:28;5.30;99.90
9043;DHT22;4556;49.150;8.808;2022-09-21T04:41:55;6.10;99.90
9043;DHT22;4556;49.150;8.808;2022-09-21T04:44:23;5.40;99.90
9043;DHT22;4556;49.150;8.808;2022-09-21T04:46:50;5.30;99.90
9043;DHT22;4556;49.150;8.808;2022-09-21T04:49:18;5.30;99.90
9043;DHT22;4556;49.150;8.808;2022-09-21T04:51:45;5.80;99.90
9043;DHT22;4556;49.150;8.808;2022-09-21T04:54:12;5.40;99.90
9043;DHT22;4556;49.150;8.808;2022-09-21T04:56:39;7.80;99.90
9043;DHT22;4556;49.150;8.808;2022-09-21T04:59:06;6.10;99.90
9043;DHT22;4556;49.150;8.808;2022-09-21T05:01:35;5.20;99.90
9043;DHT22;4556;49.150;8.808;2022-09-21T05:04:02;6.40;99.90
9043;DHT22;4556;49.150;8.808;2022-09-21T05:06:30;6.50;99.90
9043;DHT22;4556;49.150;8.808;2022-09-21T05:08:57;6.50;99.90
9043;DHT22;4556;49.150;8.808;2022-09-21T05:11:42;6.90;99.90
9043;DHT22;4556;49.150;8.808;2022-09-21T05:14:09;5.30;99.90
9043;DHT22;4556;49.150;8.808;2022-09-21T05:16:38;5.30;99.90
9043;DHT22;4556;49.150;8.808;2022-09-21T05:19:06;5.40;99.90
9043;DHT22;4556;49.150;8.808;2022-09-21T05:21:33;5.30;99.90
9043;DHT22;4556;49.150;8.808;2022-09-21T05:24:02;5.30;99.90
9043;DHT22;4556;49.150;8.808;2022-09-21T05:26:29;5.30;99.90
9043;DHT22;4556;49.150;8.808;2022-09-21T05:28:56;5.80;99.90
9043;DHT22;4556;49.150;8.808;2022-09-21T05:31:31;5.50;99.90
9043;DHT22;4556;49.150;8.808;2022-09-21T05:34:08;5.50;99.90
9043;DHT22;4556;49.150;8.808;2022-09-21T05:36:43;5.50;99.90
9043;DHT22;4556;49.150;8.808;2022-09-21T05:39:12;5.50;99.90
9043;DHT22;4556;49.150;8.808;2022-09-21T05:41:39;5.50;99.90
9043;DHT22;4556;49.150;8.808;2022-09-21T05:44:10;5.50;99.90
9043;DHT22;4556;49.150;8.808;2022-09-21T05:46:39;5.50;99.90
9043;DHT22;4556;49.150;8.808;2022-09-21T05:49:16;6.10;99.90
9043;DHT22;4556;49.150;8.808;2022-09-21T05:51:52;5.70;99.90
9043;DHT22;4556;49.150;8.808;2022-09-21T05:54:27;5.70;99.90
9043;DHT22;4556;49.150;8.808;2022-09-21T05:57:04;5.80;99.90
9043;DHT22;4556;49.150;8.808;2022-09-21T05:59:47;5.60;99.90
9043;DHT22;4556;49.150;8.808;2022-09-21T06:02:25;5.70;99.90
9043;DHT22;4556;49.150;8.808;2022-09-21T06:04:56;8.40;99.90
9043;DHT22;4556;49.150;8.808;2022-09-21T06:07:26;5.90;99.90
9043;DHT22;4556;49.150;8.808;2022-09-21T06:09:53;8.10;99.90
9043;DHT22;4556;49.150;8.808;2022-09-21T06:12:20;6.00;99.90
9043;DHT22;4556;49.150;8.808;2022-09-21T06:14:47;6.00;99.90
9043;DHT22;4556;49.150;8.808;2022-09-21T06:17:14;6.00;99.90
9043;DHT22;4556;49.150;8.808;2022-09-21T06:19:41;6.10;99.90
9043;DHT22;4556;49.150;8.808;2022-09-21T06:22:10;6.20;99.90
9043;DHT22;4556;49.150;8.808;2022-09-21T06:24:37;7.60;99.90
9043;DHT22;4556;49.150;8.808;2022-09-21T06:27:04;7.40;99.90
9043;DHT22;4556;49.150;8.808;2022-09-21T06:29:31;6.50;99.90
9043;DHT22;4556;49.150;8.808;2022-09-21T06:31:58;9.10;99.90
9043;DHT22;4556;49.150;8.808;2022-09-21T06:34:25;8.70;99.90
9043;DHT22;4556;49.150;8.808;2022-09-21T06:36:52;8.70;99.90
9043;DHT22;4556;49.150;8.808;2022-09-21T06:39:21;6.80;99.90
9043;DHT22;4556;49.150;8.808;2022-09-21T06:41:48;9.70;99.90
9043;DHT22;4556;49.150;8.808;2022-09-21T06:44:15;6.70;99.90
9043;DHT22;4556;49.150;8.808;2022-09-21T06:46:44;8.40;99.90
9043;DHT22;4556;49.150;8.808;2022-09-21T06:49:11;6.90;99.90
9043;DHT22;4556;49.150;8.808;2022-09-21T06:51:38;7.10;99.90
9043;DHT22;4556;49.150;8.808;2022-09-21T06:54:08;7.10;99.90
9043;DHT22;4556;49.150;8.808;2022-09-21T06:56:37;6.90;99.90
9043;DHT22;4556;49.150;8.808;2022-09-21T06:59:04;9.00;99.90
9043;DHT22;4556;49.150;8.808;2022-09-21T07:01:32;7.50;99.90
9043;DHT22;4556;49.150;8.808;2022-09-21T07:04:00;7.50;99.90
9043;DHT22;4556;49.150;8.808;2022-09-21T07:06:27;7.40;99.90
9043;DHT22;4556;49.150;8.808;2022-09-21T07:08:54;6.80;99.90
9043;DHT22;4556;49.150;8.808;2022-09-21T07:11:22;8.90;99.90
9043;DHT22;4556;49.150;8.808;2022-09-21T07:13:51;7.50;99.90
9043;DHT22;4556;49.150;8.808;2022-09-21T07:16:18;7.30;99.90
9043;DHT22;4556;49.150;8.808;2022-09-21T07:18:46;10.10;99.90
9043;DHT22;4556;49.150;8.808;2022-09-21T07:21:13;7.30;99.90
9043;DHT22;4556;49.150;8.808;2022-09-21T07:23:41;7.30;99.90
9043;DHT22;4556;49.150;8.808;2022-09-21T07:26:12;7.20;99.90
9043;DHT22;4556;49.150;8.808;2022-09-21T07:28:39;7.70;99.90
9043;DHT22;4556;49.150;8.808;2022-09-21T07:31:10;7.50;99.90
9043;DHT22;4556;49.150;8.808;2022-09-21T07:33:38;8.60;99.90
9043;DHT22;4556;49.150;8.808;2022-09-21T07:36:06;7.90;99.90
9043;DHT22;4556;49.150;8.808;2022-09-21T07:38:36;7.80;99.90
9043;DHT22;4556;49.150;8.808;2022-09-21T07:41:04;10.70;99.90
9043;DHT22;4556;49.150;8.808;2022-09-21T07:43:31;7.90;99.90
9043;DHT22;4556;49.150;8.808;2022-09-21T07:45:59;7.80;99.90
9043;DHT22;4556;49.150;8.808;2022-09-21T07:48:29;7.80;99.90
9043;DHT22;4556;49.150;8.808;2022-09-21T07:51:00;7.90;99.90
9043;DHT22;4556;49.150;8.808;2022-09-21T07:53:29;7.90;99.90
9043;DHT22;4556;49.150;8.808;2022-09-21T07:56:00;8.00;99.90
9043;DHT22;4556;49.150;8.808;2022-09-21T07:58:28;8.10;99.90
9043;DHT22;4556;49.150;8.808;2022-09-21T08:01:12;8.30;99.90
9043;DHT22;4556;49.150;8.808;2022-09-21T08:03:41;8.50;99.90
9043;DHT22;4556;49.150;8.808;2022-09-21T08:06:08;9.40;99.90
9043;DHT22;4556;49.150;8.808;2022-09-21T08:08:36;10.20;99.90
9043;DHT22;4556;49.150;8.808;2022-09-21T08:11:04;11.20;99.90
9043;DHT22;4556;49.150;8.808;2022-09-21T08:13:32;9.40;99.90
9043;DHT22;4556;49.150;8.808;2022-09-21T08:16:00;9.60;99.90
9043;DHT22;4556;49.150;8.808;2022-09-21T08:18:27;9.70;99.90
9043;DHT22;4556;49.150;8.808;2022-09-21T08:20:56;9.80;99.90
9043;DHT22;4556;49.150;8.808;2022-09-21T08:23:24;9.90;99.90
9043;DHT22;4556;49.150;8.808;2022-09-21T08:25:57;11.60;99.90
9043;DHT22;4556;49.150;8.808;2022-09-21T08:28:26;10.40;99.90
9043;DHT22;4556;49.150;8.808;2022-09-21T08:30:53;10.50;99.90
9043;DHT22;4556;49.150;8.808;2022-09-21T08:33:20;12.10;99.90
9043;DHT22;4556;49.150;8.808;2022-09-21T08:35:51;13.70;99.90
9043;DHT22;4556;49.150;8.808;2022-09-21T08:38:20;12.70;99.90
9043;DHT22;4556;49.150;8.808;2022-09-21T08:40:48;11.00;99.90
9043;DHT22;4556;49.150;8.808;2022-09-21T08:43:17;11.00;99.90
9043;DHT22;4556;49.150;8.808;2022-09-21T08:45:46;11.20;99.90
9043;DHT22;4556;49.150;8.808;2022-09-21T08:48:17;11.30;99.90
9043;DHT22;4556;49.150;8.808;2022-09-21T08:50:48;12.40;99.90
9043;DHT22;4556;49.150;8.808;2022-09-21T08:53:21;11.30;99.90
9043;DHT22;4556;49.150;8.808;2022-09-21T08:55:50;11.60;99.90
9043;DHT22;4556;49.150;8.808;2022-09-21T08:58:22;11.70;99.90
9043;DHT22;4556;49.150;8.808;2022-09-21T09:01:02;11.90;99.90
9043;DHT22;4556;49.150;8.808;2022-09-21T09:03:48;12.00;99.90
9043;DHT22;4556;49.150;8.808;2022-09-21T09:06:24;13.10;99.90
9043;DHT22;4556;49.150;8.808;2022-09-21T09:09:04;13.10;99.90
9043;DHT22;4556;49.150;8.808;2022-09-21T09:11:43;12.00;99.90
9043;DHT22;4556;49.150;8.808;2022-09-21T09:14:41;12.20;99.90
9043;DHT22;4556;49.150;8.808;2022-09-21T09:17:26;12.30;99.90
9043;DHT22;4556;49.150;8.808;2022-09-21T09:20:02;13.60;99.90
9043;DHT22;4556;49.150;8.808;2022-09-21T09:22:35;12.60;99.90
9043;DHT22;4556;49.150;8.808;2022-09-21T09:25:15;12.90;99.90
9043;DHT22;4556;49.150;8.808;2022-09-21T09:27:47;13.00;99.90
9043;DHT22;4556;49.150;8.808;2022-09-21T09:30:18;13.00;99.90
9043;DHT22;4556;49.150;8.808;2022-09-21T09:32:51;13.20;99.90
9043;DHT22;4556;49.150;8.808;2022-09-21T09:35:25;14.40;99.90
9043;DHT22;4556;49.150;8.808;2022-09-21T09:37:57;14.20;99.90
9043;DHT22;4556;49.150;8.808;2022-09-21T09:40:42;13.20;99.90
9043;DHT22;4556;49.150;8.808;2022-09-21T09:43:17;13.30;99.90
9043;DHT22;4556;49.150;8.808;2022-09-21T09:45:52;13.30;99.90
9043;DHT22;4556;49.150;8.808;2022-09-21T09:48:35;16.90;99.90
9043;DHT22;4556;49.150;8.808;2022-09-21T09:51:03;13.60;99.90
9043;DHT22;4556;49.150;8.808;2022-09-21T09:53:30;13.60;99.90
9043;DHT22;4556;49.150;8.808;2022-09-21T09:56:00;14.00;99.90
9043;DHT22;4556;49.150;8.808;2022-09-21T09:58:35;13.80;99.90
9043;DHT22;4556;49.150;8.808;2022-09-21T10:01:06;13.90;99.90
9043;DHT22;4556;49.150;8.808;2022-09-21T10:03:33;14.90;99.90
9043;DHT22;4556;49.150;8.808;2022-09-21T10:06:01;14.10;99.90
9043;DHT22;4556;49.150;8.808;2022-09-21T10:08:39;14.10;99.90
9043;DHT22;4556;49.150;8.808;2022-09-21T10:11:09;14.20;99.90
9043;DHT22;4556;49.150;8.808;2022-09-21T10:13:38;14.20;99.90
9043;DHT22;4556;49.150;8.808;2022-09-21T10:16:11;14.50;99.90
9043;DHT22;4556;49.150;8.808;2022-09-21T10:18:44;14.30;99.90
9043;DHT22;4556;49.150;8.808;2022-09-21T10:21:17;14.40;99.90
9043;DHT22;4556;49.150;8.808;2022-09-21T10:23:47;14.30;99.90
9043;DHT22;4556;49.150;8.808;2022-09-21T10:26:18;14.40;99.90
9043;DHT22;4556;49.150;8.808;2022-09-21T10:28:56;16.30;99.90
9043;DHT22;4556;49.150;8.808;2022-09-21T10:31:25;15.10;99.90
9043;DHT22;4556;49.150;8.808;2022-09-21T10:34:05;16.00;99.90
9043;DHT22;4556;49.150;8.808;2022-09-21T10:36:33;16.70;99.90
9043;DHT22;4556;49.150;8.808;2022-09-21T10:39:26;15.20;99.90
9043;DHT22;4556;49.150;8.808;2022-09-21T10:42:09;15.00;99.90
9043;DHT22;4556;49.150;8.808;2022-09-21T10:44:39;14.90;99.90
9043;DHT22;4556;49.150;8.808;2022-09-21T10:47:18;14.90;99.90
9043;DHT22;4556;49.150;8.808;2022-09-21T10:49:48;15.90;99.90
9043;DHT22;4556;49.150;8.808;2022-09-21T10:52:17;16.90;99.90
9043;DHT22;4556;49.150;8.808;2022-09-21T10:54:48;14.80;99.90
9043;DHT22;4556;49.150;8.808;2022-09-21T10:57:20;14.70;99.90
9043;DHT22;4556;49.150;8.808;2022-09-21T10:59:48;14.80;99.90
9043;DHT22;4556;49.150;8.808;2022-09-21T11:02:34;14.90;99.90
9043;DHT22;4556;49.150;8.808;2022-09-21T11:05:09;14.90;99.90
9043;DHT22;4556;49.150;8.808;2022-09-21T11:07:44;15.00;99.90
9043;DHT22;4556;49.150;8.808;2022-09-21T11:10:19;15.80;99.90
9043;DHT22;4556;49.150;8.808;2022-09-21T11:12:59;15.00;99.90
9043;DHT22;4556;49.150;8.808;2022-09-21T11:15:37;15.00;99.90
9043;DHT22;4556;49.150;8.808;2022-09-21T11:18:14;15.10;99.90
9043;DHT22;4556;49.150;8.808;2022-09-21T11:20:47;15.10;99.90
9043;DHT22;4556;49.150;8.808;2022-09-21T11:23:25;15.70;99.90
9043;DHT22;4556;49.150;8.808;2022-09-21T11:25:59;15.00;99.90
9043;DHT22;4556;49.150;8.808;2022-09-21T11:28:35;15.00;99.90
9043;DHT22;4556;49.150;8.808;2022-09-21T11:31:21;15.00;99.90
9043;DHT22;4556;49.150;8.808;2022-09-21T11:34:10;14.90;99.90
9043;DHT22;4556;49.150;8.808;2022-09-21T11:36:48;15.10;99.90
9043;DHT22;4556;49.150;8.808;2022-09-21T11:39:26;15.20;99.90
9043;DHT22;4556;49.150;8.808;2022-09-21T11:42:06;16.50;99.90
9043;DHT22;4556;49.150;8.808;2022-09-21T11:44:50;15.30;99.90
9043;DHT22;4556;49.150;8.808;2022-09-21T11:50:44;15.30;99.90
9043;DHT22;4556;49.150;8.808;2022-09-21T11:53:26;15.20;99.90
9043;DHT22;4556;49.150;8.808;2022-09-21T11:56:11;15.30;99.90
9043;DHT22;4556;49.150;8.808;2022-09-21T11:58:48;15.30;99.90
9043;DHT22;4556;49.150;8.808;2022-09-21T12:01:34;15.30;99.90
9043;DHT22;4556;49.150;8.808;2022-09-21T12:04:19;15.30;99.90
9043;DHT22;4556;49.150;8.808;2022-09-21T12:07:01;15.30;99.90
9043;DHT22;4556;49.150;8.808;2022-09-21T12:09:50;15.20;99.90
9043;DHT22;4556;49.150;8.808;2022-09-21T12:12:22;15.20;99.90
9043;DHT22;4556;49.150;8.808;2022-09-21T12:14:58;16.20;99.90
9043;DHT22;4556;49.150;8.808;2022-09-21T12:17:38;16.10;99.90
9043;DHT22;4556;49.150;8.808;2022-09-21T12:20:13;15.40;99.90
9043;DHT22;4556;49.150;8.808;2022-09-21T12:22:44;15.50;99.90
9043;DHT22;4556;49.150;8.808;2022-09-21T12:25:15;16.30;99.90
9043;DHT22;4556;49.150;8.808;2022-09-21T12:27:46;15.60;99.90
9043;DHT22;4556;49.150;8.808;2022-09-21T12:30:16;17.80;99.90
9043;DHT22;4556;49.150;8.808;2022-09-21T12:32:50;15.80;99.90
9043;DHT22;4556;49.150;8.808;2022-09-21T12:35:24;15.80;99.90
9043;DHT22;4556;49.150;8.808;2022-09-21T12:37:56;16.70;99.90
9043;DHT22;4556;49.150;8.808;2022-09-21T12:40:33;17.50;99.90
9043;DHT22;4556;49.150;8.808;2022-09-21T12:43:07;15.50;99.90
9043;DHT22;4556;49.150;8.808;2022-09-21T12:45:42;15.70;99.90
9043;DHT22;4556;49.150;8.808;2022-09-21T12:48:21;15.90;99.90
9043;DHT22;4556;49.150;8.808;2022-09-21T12:50:53;15.90;99.90
9043;DHT22;4556;49.150;8.808;2022-09-21T12:53:25;16.10;99.90
9043;DHT22;4556;49.150;8.808;2022-09-21T12:55:55;16.30;99.90
9043;DHT22;4556;49.150;8.808;2022-09-21T12:58:56;17.90;99.90
9043;DHT22;4556;49.150;8.808;2022-09-21T13:01:34;15.80;99.90
9043;DHT22;4556;49.150;8.808;2022-09-21T13:04:24;15.80;99.90
9043;DHT22;4556;49.150;8.808;2022-09-21T13:09:49;16.00;99.90
9043;DHT22;4556;49.150;8.808;2022-09-21T13:12:22;15.70;99.90
9043;DHT22;4556;49.150;8.808;2022-09-21T13:14:54;15.80;99.90
9043;DHT22;4556;49.150;8.808;2022-09-21T13:17:30;15.80;99.90
9043;DHT22;4556;49.150;8.808;2022-09-21T13:20:02;16.00;99.90
9043;DHT22;4556;49.150;8.808;2022-09-21T13:22:32;16.10;99.90
9043;DHT22;4556;49.150;8.808;2022-09-21T13:25:03;16.00;99.90
9043;DHT22;4556;49.150;8.808;2022-09-21T13:27:56;17.40;99.90
9043;DHT22;4556;49.150;8.808;2022-09-21T13:30:34;16.10;99.90
9043;DHT22;4556;49.150;8.808;2022-09-21T13:33:03;16.30;99.90
9043;DHT22;4556;49.150;8.808;2022-09-21T13:39:11;16.50;99.90
9043;DHT22;4556;49.150;8.808;2022-09-21T13:41:39;16.40;99.90
9043;DHT22;4556;49.150;8.808;2022-09-21T13:44:18;16.50;99.90
9043;DHT22;4556;49.150;8.808;2022-09-21T13:46:52;16.50;99.90
9043;DHT22;4556;49.150;8.808;2022-09-21T13:49:28;16.40;99.90
9043;DHT22;4556;49.150;8.808;2022-09-21T13:52:00;16.60;99.90
9043;DHT22;4556;49.150;8.808;2022-09-21T13:54:32;17.80;99.90
9043;DHT22;4556;49.150;8.808;2022-09-21T13:57:14;16.50;99.90
9043;DHT22;4556;49.150;8.808;2022-09-21T13:59:44;16.50;99.90
9043;DHT22;4556;49.150;8.808;2022-09-21T14:02:23;16.70;99.90
9043;DHT22;4556;49.150;8.808;2022-09-21T14:04:51;17.70;99.90
9043;DHT22;4556;49.150;8.808;2022-09-21T14:07:19;16.80;99.90
9043;DHT22;4556;49.150;8.808;2022-09-21T14:09:56;16.90;99.90
9043;DHT22;4556;49.150;8.808;2022-09-21T14:12:25;16.90;99.90
9043;DHT22;4556;49.150;8.808;2022-09-21T14:15:33;17.60;99.90
9043;DHT22;4556;49.150;8.808;2022-09-21T14:18:35;16.30;99.90
9043;DHT22;4556;49.150;8.808;2022-09-21T14:21:11;15.90;99.90
9043;DHT22;4556;49.150;8.808;2022-09-21T14:24:17;15.70;99.90
9043;DHT22;4556;49.150;8.808;2022-09-21T14:26:54;15.60;99.90
9043;DHT22;4556;49.150;8.808;2022-09-21T14:29:27;15.70;99.90
9043;DHT22;4556;49.150;8.808;2022-09-21T14:31:57;15.80;99.90
9043;DHT22;4556;49.150;8.808;2022-09-21T14:34:31;16.20;99.90
9043;DHT22;4556;49.150;8.808;2022-09-21T14:37:02;16.50;99.90
9043;DHT22;4556;49.150;8.808;2022-09-21T14:39:33;17.00;99.90
9043;DHT22;4556;49.150;8.808;2022-09-21T14:42:06;16.20;99.90
9043;DHT22;4556;49.150;8.808;2022-09-21T14:44:38;16.20;99.90
9043;DHT22;4556;49.150;8.808;2022-09-21T14:47:15;18.10;99.90
9043;DHT22;4556;49.150;8.808;2022-09-21T14:52:45;16.30;99.90
9043;DHT22;4556;49.150;8.808;2022-09-21T14:55:22;16.30;99.90
9043;DHT22;4556;49.150;8.808;2022-09-21T14:58:10;16.30;99.90
9043;DHT22;4556;49.150;8.808;2022-09-21T15:00:42;16.30;99.90
9043;DHT22;4556;49.150;8.808;2022-09-21T15:03:46;16.20;99.90
9043;DHT22;4556;49.150;8.808;2022-09-21T15:06:21;16.60;99.90
9043;DHT22;4556;49.150;8.808;2022-09-21T15:09:39;17.30;99.90
9043;DHT22;4556;49.150;8.808;2022-09-21T15:12:34;16.20;99.90
9043;DHT22;4556;49.150;8.808;2022-09-21T15:15:20;16.20;99.90
9043;DHT22;4556;49.150;8.808;2022-09-21T15:17:54;16.30;99.90
9043;DHT22;4556;49.150;8.808;2022-09-21T15:20:24;16.30;99.90
9043;DHT22;4556;49.150;8.808;2022-09-21T15:22:53;16.20;99.90
9043;DHT22;4556;49.150;8.808;2022-09-21T15:25:22;16.10;99.90
9043;DHT22;4556;49.150;8.808;2022-09-21T15:27:51;16.10;99.90
9043;DHT22;4556;49.150;8.808;2022-09-21T15:30:21;16.00;99.90
9043;DHT22;4556;49.150;8.808;2022-09-21T15:32:51;16.00;99.90
9043;DHT22;4556;49.150;8.808;2022-09-21T15:35:21;15.90;99.90
9043;DHT22;4556;49.150;8.808;2022-09-21T15:37:49;15.90;99.90
9043;DHT22;4556;49.150;8.808;2022-09-21T15:40:19;15.80;99.90
9043;DHT22;4556;49.150;8.808;2022-09-21T15:42:59;15.80;99.90
9043;DHT22;4556;49.150;8.808;2022-09-21T15:45:30;15.70;99.90
9043;DHT22;4556;49.150;8.808;2022-09-21T15:47:59;15.70;99.90
9043;DHT22;4556;49.150;8.808;2022-09-21T15:50:28;15.30;99.90
9043;DHT22;4556;49.150;8.808;2022-09-21T15:52:57;15.70;99.90
9043;DHT22;4556;49.150;8.808;2022-09-21T15:55:28;15.70;99.90
9043;DHT22;4556;49.150;8.808;2022-09-21T15:57:56;15.60;99.90
9043;DHT22;4556;49.150;8.808;2022-09-21T16:00:26;15.70;99.90
9043;DHT22;4556;49.150;8.808;2022-09-21T16:03:04;15.60;99.90
9043;DHT22;4556;49.150;8.808;2022-09-21T16:05:44;16.30;99.90
9043;DHT22;4556;49.150;8.808;2022-09-21T16:08:27;17.40;99.90
9043;DHT22;4556;49.150;8.808;2022-09-21T16:11:13;15.60;99.90
9043;DHT22;4556;49.150;8.808;2022-09-21T16:13:41;15.60;99.90
9043;DHT22;4556;49.150;8.808;2022-09-21T16:16:26;15.60;99.90
9043;DHT22;4556;49.150;8.808;2022-09-21T16:18:56;15.50;99.90
9043;DHT22;4556;49.150;8.808;2022-09-21T16:21:26;15.40;99.90
9043;DHT22;4556;49.150;8.808;2022-09-21T16:24:06;15.40;99.90
9043;DHT22;4556;49.150;8.808;2022-09-21T16:26:37;15.40;99.90
9043;DHT22;4556;49.150;8.808;2022-09-21T16:29:19;15.40;99.90
9043;DHT22;4556;49.150;8.808;2022-09-21T16:31:48;15.30;99.90
9043;DHT22;4556;49.150;8.808;2022-09-21T16:34:30;15.30;99.90
9043;DHT22;4556;49.150;8.808;2022-09-21T16:37:02;15.30;99.90
9043;DHT22;4556;49.150;8.808;2022-09-21T16:39:47;15.20;99.90
9043;DHT22;4556;49.150;8.808;2022-09-21T16:42:14;15.10;99.90
9043;DHT22;4556;49.150;8.808;2022-09-21T16:44:42;15.10;99.90
9043;DHT22;4556;49.150;8.808;2022-09-21T16:47:11;16.20;99.90
9043;DHT22;4556;49.150;8.808;2022-09-21T16:49:42;15.00;99.90
9043;DHT22;4556;49.150;8.808;2022-09-21T16:52:09;16.30;99.90
9043;DHT22;4556;49.150;8.808;2022-09-21T16:54:36;14.90;99.90
9043;DHT22;4556;49.150;8.808;2022-09-21T16:57:04;16.20;99.90
9043;DHT22;4556;49.150;8.808;2022-09-21T16:59:32;14.70;99.90
9043;DHT22;4556;49.150;8.808;2022-09-21T17:02:01;14.70;99.90